Time;durP1;ratioP1;P1;durP2;ratioP2;P2;SDS_P1;SDS_P2;PMS_P1;PMS_P2;Temp;Humidity;BMP_temperature;BMP_pressure;BME280_temperature;BME280_humidity;BME280_pressure;Samples;Min_cycle;Max_cycle;Signal;HPM_P1;HPM_P2
2023/04/19 00:00:21;;;;;;;6.90;4.43;;;;;;;;;;5120557;27;20054;-69
2023/04/19 00:02:49;;;;;;;6.95;4.40;;;;;;;;;;5129797;27;20043;-69
2023/04/19 00:05:17;;;;;;;6.22;4.45;;;;;;;;;;5124791;27;20050;-69
2023/04/19 00:07:45;;;;;;;7.60;4.50;;;;;;;;;;5128954;27;20124;-69
2023/04/19 00:10:13;;;;;;;6.72;4.15;;;;;;;;;;5129655;27;20104;-69
2023/04/19 00:12:40;;;;;;;8.52;4.50;;;;;;;;;;5125964;27;20075;-69
2023/04/19 00:15:08;;;;;;;6.88;4.57;;;;;;;;;;5121669;27;20054;-69
2023/04/19 00:17:37;;;;;;;7.45;5.35;;;;;;;;;;5121555;27;20074;-69
2023/04/19 00:20:05;;;;;;;7.13;4.57;;;;;;;;;;5127074;27;20047;-69
2023/04/19 00:22:32;;;;;;;6.90;5.22;;;;;;;;;;5103899;27;20130;-69
2023/04/19 00:25:00;;;;;;;6.28;4.50;;;;;;;;;;5125212;27;20047;-69
2023/04/19 00:27:27;;;;;;;10.02;5.28;;;;;;;;;;5127295;27;20045;-69
2023/04/19 00:29:56;;;;;;;6.85;4.78;;;;;;;;;;5127940;27;20051;-69
2023/04/19 00:32:23;;;;;;;6.47;4.78;;;;;;;;;;5110110;27;20051;-69
2023/04/19 00:34:52;;;;;;;7.80;4.72;;;;;;;;;;5108630;27;20051;-69
2023/04/19 00:37:19;;;;;;;7.30;5.22;;;;;;;;;;5120213;27;20043;-69
2023/04/19 00:39:46;;;;;;;7.28;4.95;;;;;;;;;;5129924;27;20043;-69
2023/04/19 00:42:14;;;;;;;7.90;4.60;;;;;;;;;;5126034;27;20047;-69
2023/04/19 00:44:41;;;;;;;7.53;5.25;;;;;;;;;;5126928;27;20142;-69
2023/04/19 00:47:08;;;;;;;9.45;5.03;;;;;;;;;;5129583;27;20055;-70
2023/04/19 00:49:36;;;;;;;6.68;5.05;;;;;;;;;;5124181;27;20509;-69
2023/04/19 00:52:05;;;;;;;9.10;5.30;;;;;;;;;;5128015;27;20054;-69
2023/04/19 00:54:33;;;;;;;10.00;5.65;;;;;;;;;;5128419;27;20429;-69
2023/04/19 00:57:01;;;;;;;8.02;5.13;;;;;;;;;;5109641;27;20070;-69
2023/04/19 00:59:28;;;;;;;11.40;5.57;;;;;;;;;;5127484;27;20086;-69
2023/04/19 01:01:55;;;;;;;10.10;5.88;;;;;;;;;;5121738;27;20050;-69
2023/04/19 01:04:23;;;;;;;10.60;5.45;;;;;;;;;;5126401;27;20054;-69
2023/04/19 01:06:51;;;;;;;9.20;5.78;;;;;;;;;;5129247;27;20047;-69
2023/04/19 01:09:19;;;;;;;8.65;5.93;;;;;;;;;;5126401;27;20039;-69
2023/04/19 01:11:47;;;;;;;9.00;5.45;;;;;;;;;;5128382;27;20047;-69
2023/04/19 01:14:17;;;;;;;8.55;5.93;;;;;;;;;;5108442;27;20053;-69
2023/04/19 01:16:45;;;;;;;9.07;5.63;;;;;;;;;;5109180;27;20103;-69
2023/04/19 01:19:12;;;;;;;10.63;6.30;;;;;;;;;;5110179;28;20112;-69
2023/04/19 01:21:41;;;;;;;9.82;5.70;;;;;;;;;;5126000;27;20051;-70
2023/04/19 01:24:12;;;;;;;9.60;6.28;;;;;;;;;;5126722;28;20049;-69
2023/04/19 01:26:40;;;;;;;10.00;6.03;;;;;;;;;;5127576;27;20049;-69
2023/04/19 01:29:07;;;;;;;13.93;6.32;;;;;;;;;;5110409;27;20063;-69
2023/04/19 01:31:35;;;;;;;10.88;6.43;;;;;;;;;;5127359;27;20491;-69
2023/04/19 01:34:02;;;;;;;16.85;6.55;;;;;;;;;;5124718;27;20142;-70
2023/04/19 01:36:30;;;;;;;11.80;6.50;;;;;;;;;;5129292;28;20232;-69
2023/04/19 01:38:57;;;;;;;11.13;6.35;;;;;;;;;;5122355;27;20490;-69
2023/04/19 01:41:26;;;;;;;9.48;6.47;;;;;;;;;;5129652;27;20512;-69
2023/04/19 01:43:53;;;;;;;10.65;6.57;;;;;;;;;;5125994;27;20492;-69
2023/04/19 01:46:21;;;;;;;11.60;6.55;;;;;;;;;;5128710;27;20498;-69
2023/04/19 01:48:48;;;;;;;10.43;6.40;;;;;;;;;;5131728;27;20071;-69
2023/04/19 01:51:16;;;;;;;10.70;6.53;;;;;;;;;;5131904;27;20055;-69
2023/04/19 01:53:43;;;;;;;12.95;7.00;;;;;;;;;;5131846;27;20501;-69
2023/04/19 01:56:10;;;;;;;10.85;6.90;;;;;;;;;;5129127;27;20051;-69
2023/04/19 01:58:39;;;;;;;10.75;6.93;;;;;;;;;;5112321;27;20082;-69
2023/04/19 02:01:08;;;;;;;11.95;6.57;;;;;;;;;;5122533;27;20054;-69
2023/04/19 02:03:35;;;;;;;11.75;6.80;;;;;;;;;;5113332;27;20069;-69
2023/04/19 02:06:03;;;;;;;10.98;7.13;;;;;;;;;;5115049;27;20056;-69
2023/04/19 02:08:30;;;;;;;11.43;7.40;;;;;;;;;;5117233;27;20409;-69
2023/04/19 02:10:57;;;;;;;13.80;8.20;;;;;;;;;;5114574;27;20113;-69
2023/04/19 02:13:24;;;;;;;12.82;7.65;;;;;;;;;;5117764;27;20506;-69
2023/04/19 02:15:53;;;;;;;13.02;8.15;;;;;;;;;;5113494;27;20051;-69
2023/04/19 02:18:20;;;;;;;12.93;8.15;;;;;;;;;;5106829;27;20536;-69
2023/04/19 02:20:49;;;;;;;14.60;7.85;;;;;;;;;;5112858;27;20043;-69
2023/04/19 02:23:16;;;;;;;16.80;8.45;;;;;;;;;;5120518;27;20409;-69
2023/04/19 02:25:43;;;;;;;16.33;8.35;;;;;;;;;;5111396;27;20096;-69
2023/04/19 02:28:11;;;;;;;13.40;8.73;;;;;;;;;;5118497;27;20448;-69
2023/04/19 02:30:38;;;;;;;18.70;9.05;;;;;;;;;;5111991;27;20047;-69
2023/04/19 02:33:07;;;;;;;14.70;8.43;;;;;;;;;;5120557;27;20066;-69
2023/04/19 02:35:34;;;;;;;13.77;8.75;;;;;;;;;;5113156;27;21146;-69
2023/04/19 02:38:03;;;;;;;14.75;8.93;;;;;;;;;;5122318;27;20086;-69
2023/04/19 02:40:30;;;;;;;15.70;8.32;;;;;;;;;;5108486;27;20051;-69
2023/04/19 02:42:58;;;;;;;18.20;9.55;;;;;;;;;;5115200;27;20055;-69
2023/04/19 02:45:25;;;;;;;14.55;8.45;;;;;;;;;;5112868;27;20471;-69
2023/04/19 02:47:52;;;;;;;13.02;9.05;;;;;;;;;;5107882;27;20043;-69
2023/04/19 02:50:21;;;;;;;15.50;8.88;;;;;;;;;;5115835;27;20145;-69
2023/04/19 02:52:48;;;;;;;12.68;8.35;;;;;;;;;;5113501;27;20067;-69
2023/04/19 02:55:15;;;;;;;16.58;9.13;;;;;;;;;;5109459;27;20388;-69
2023/04/19 02:57:42;;;;;;;15.38;8.73;;;;;;;;;;5110500;27;20100;-69
2023/04/19 03:00:11;;;;;;;13.18;8.57;;;;;;;;;;5118260;27;20738;-69
2023/04/19 03:02:38;;;;;;;16.20;8.68;;;;;;;;;;5122914;27;20051;-69
2023/04/19 03:05:06;;;;;;;14.63;9.27;;;;;;;;;;5120871;27;20086;-69
2023/04/19 03:07:35;;;;;;;17.98;8.57;;;;;;;;;;5113822;27;20055;-69
2023/04/19 03:10:02;;;;;;;16.52;8.23;;;;;;;;;;5106898;27;20490;-69
2023/04/19 03:12:30;;;;;;;12.27;8.20;;;;;;;;;;5103983;27;20475;-69
2023/04/19 03:14:57;;;;;;;17.25;7.97;;;;;;;;;;5113776;27;20043;-69
2023/04/19 03:17:24;;;;;;;11.27;8.07;;;;;;;;;;5116278;27;20040;-69
2023/04/19 03:19:52;;;;;;;15.50;8.13;;;;;;;;;;5111949;27;20514;-69
2023/04/19 03:22:19;;;;;;;12.40;7.60;;;;;;;;;;5109366;27;20047;-69
2023/04/19 03:24:48;;;;;;;13.05;7.55;;;;;;;;;;5107749;27;20047;-69
2023/04/19 03:27:15;;;;;;;15.60;8.25;;;;;;;;;;5116297;27;20499;-69
2023/04/19 03:29:42;;;;;;;13.20;7.50;;;;;;;;;;5118449;27;20046;-69
2023/04/19 03:32:09;;;;;;;13.45;7.38;;;;;;;;;;5115018;27;20047;-69
2023/04/19 03:34:37;;;;;;;11.23;7.18;;;;;;;;;;5121448;27;20062;-69
2023/04/19 03:37:04;;;;;;;12.40;7.28;;;;;;;;;;5125261;27;20513;-69
2023/04/19 03:39:32;;;;;;;16.13;7.32;;;;;;;;;;5107367;27;20044;-69
2023/04/19 03:42:01;;;;;;;11.95;7.53;;;;;;;;;;5113110;27;20051;-69
2023/04/19 03:44:28;;;;;;;15.35;7.45;;;;;;;;;;5118921;27;20135;-69
2023/04/19 03:46:56;;;;;;;11.10;6.18;;;;;;;;;;5112205;27;20437;-69
2023/04/19 03:49:23;;;;;;;13.98;7.20;;;;;;;;;;5111689;27;20044;-69
2023/04/19 03:51:50;;;;;;;12.30;6.70;;;;;;;;;;5104837;27;20134;-69
2023/04/19 03:54:17;;;;;;;11.48;6.75;;;;;;;;;;5108147;27;20047;-69
2023/04/19 03:56:45;;;;;;;11.50;6.57;;;;;;;;;;5112143;27;20052;-69
2023/04/19 03:59:13;;;;;;;12.50;7.15;;;;;;;;;;5106426;27;20050;-69
2023/04/19 04:01:41;;;;;;;10.65;6.22;;;;;;;;;;5129706;27;20070;-69
2023/04/19 04:04:08;;;;;;;11.27;6.28;;;;;;;;;;5129355;27;20070;-69
2023/04/19 04:06:36;;;;;;;9.65;6.85;;;;;;;;;;5126476;27;20434;-69
2023/04/19 04:09:04;;;;;;;12.60;6.53;;;;;;;;;;5128562;27;20043;-69
2023/04/19 04:11:31;;;;;;;15.02;7.57;;;;;;;;;;5127688;27;20050;-69
2023/04/19 04:13:58;;;;;;;14.00;6.57;;;;;;;;;;5108108;27;20055;-69
2023/04/19 04:16:27;;;;;;;9.85;6.10;;;;;;;;;;5129322;27;20051;-69
2023/04/19 04:18:54;;;;;;;9.85;6.35;;;;;;;;;;5129447;27;20046;-69
2023/04/19 04:21:23;;;;;;;12.23;6.78;;;;;;;;;;5123185;27;20143;-69
2023/04/19 04:23:50;;;;;;;12.38;6.63;;;;;;;;;;5126431;27;20501;-69
2023/04/19 04:26:18;;;;;;;11.93;6.47;;;;;;;;;;5110490;27;20070;-69
2023/04/19 04:28:46;;;;;;;10.57;6.28;;;;;;;;;;5129436;27;20078;-69
2023/04/19 04:31:16;;;;;;;12.57;6.38;;;;;;;;;;5119227;27;20046;-69
2023/04/19 04:33:46;;;;;;;14.60;6.68;;;;;;;;;;5125364;27;20432;-69
2023/04/19 04:36:14;;;;;;;11.75;6.63;;;;;;;;;;5110309;27;20058;-69
2023/04/19 04:38:42;;;;;;;16.65;7.88;;;;;;;;;;5125108;27;20554;-69
2023/04/19 04:41:09;;;;;;;17.92;6.70;;;;;;;;;;5124031;27;20094;-69
2023/04/19 04:43:37;;;;;;;10.77;5.78;;;;;;;;;;5128264;27;20123;-69
2023/04/19 04:46:04;;;;;;;9.15;5.80;;;;;;;;;;5104899;27;20069;-69
2023/04/19 04:48:31;;;;;;;10.30;6.03;;;;;;;;;;5130258;27;20071;-69
2023/04/19 04:51:00;;;;;;;9.40;5.90;;;;;;;;;;5110830;27;20063;-69
2023/04/19 04:53:27;;;;;;;9.38;5.85;;;;;;;;;;5110455;27;20522;-69
2023/04/19 04:55:55;;;;;;;13.68;6.20;;;;;;;;;;5126294;27;20111;-70
2023/04/19 04:58:22;;;;;;;9.98;5.60;;;;;;;;;;5127239;27;20058;-69
2023/04/19 05:00:49;;;;;;;10.00;5.68;;;;;;;;;;5111586;27;20070;-69
2023/04/19 05:03:16;;;;;;;8.98;5.95;;;;;;;;;;5111405;27;20051;-69
2023/04/19 05:05:44;;;;;;;10.20;5.35;;;;;;;;;;5124382;27;20062;-69
2023/04/19 05:08:13;;;;;;;11.00;5.70;;;;;;;;;;5128712;27;20051;-69
2023/04/19 05:10:40;;;;;;;11.57;5.90;;;;;;;;;;5126471;27;20051;-68
2023/04/19 05:13:07;;;;;;;9.52;5.47;;;;;;;;;;5128420;27;20047;-69
2023/04/19 05:15:34;;;;;;;8.43;5.05;;;;;;;;;;5128361;27;20065;-68
2023/04/19 05:18:02;;;;;;;10.70;5.35;;;;;;;;;;5125787;27;20066;-69
2023/04/19 05:20:29;;;;;;;9.80;5.22;;;;;;;;;;5123262;27;20367;-67
2023/04/19 05:23:02;;;;;;;9.13;5.28;;;;;;;;;;5116288;27;20520;-68
2023/04/19 05:25:30;;;;;;;9.75;4.50;;;;;;;;;;5122699;27;20043;-68
2023/04/19 05:27:57;;;;;;;8.13;4.40;;;;;;;;;;5115252;27;20047;-68
2023/04/19 05:30:25;;;;;;;11.70;5.13;;;;;;;;;;5128480;27;20126;-68
2023/04/19 05:32:52;;;;;;;10.52;5.20;;;;;;;;;;5126926;27;20498;-70
2023/04/19 05:35:20;;;;;;;8.00;4.47;;;;;;;;;;5116067;28;20046;-70
2023/04/19 05:37:47;;;;;;;9.23;4.63;;;;;;;;;;5128198;27;20035;-69
2023/04/19 05:40:14;;;;;;;7.90;4.78;;;;;;;;;;5121566;27;20047;-68
2023/04/19 05:42:43;;;;;;;8.98;4.53;;;;;;;;;;5127251;27;20050;-69
2023/04/19 05:45:11;;;;;;;11.90;4.72;;;;;;;;;;5124254;27;20543;-69
2023/04/19 05:47:38;;;;;;;11.45;4.88;;;;;;;;;;5125600;27;20047;-68
2023/04/19 05:50:06;;;;;;;8.68;4.32;;;;;;;;;;5127548;27;20050;-69
2023/04/19 05:52:33;;;;;;;8.52;4.80;;;;;;;;;;5121537;27;20051;-68
2023/04/19 05:55:00;;;;;;;8.35;4.30;;;;;;;;;;5119010;28;20405;-69
2023/04/19 05:57:28;;;;;;;8.05;4.07;;;;;;;;;;5127585;28;20451;-68
2023/04/19 05:59:56;;;;;;;8.18;3.80;;;;;;;;;;5124553;28;20053;-68
2023/04/19 06:02:24;;;;;;;8.65;3.92;;;;;;;;;;5112360;28;20056;-67
2023/04/19 06:04:51;;;;;;;6.50;3.63;;;;;;;;;;5112783;28;20050;-68
2023/04/19 06:07:18;;;;;;;5.85;3.30;;;;;;;;;;5109156;28;20045;-68
2023/04/19 06:09:46;;;;;;;6.85;3.70;;;;;;;;;;5113314;28;20051;-68
2023/04/19 06:12:13;;;;;;;6.18;3.50;;;;;;;;;;5117782;28;20054;-68
2023/04/19 06:14:40;;;;;;;8.27;3.67;;;;;;;;;;5121067;28;20051;-68
2023/04/19 06:17:09;;;;;;;6.25;3.55;;;;;;;;;;5104653;28;20052;-68
2023/04/19 06:19:37;;;;;;;7.40;3.72;;;;;;;;;;5117090;28;20048;-68
2023/04/19 06:22:04;;;;;;;7.13;3.58;;;;;;;;;;5116281;28;20505;-69
2023/04/19 06:24:31;;;;;;;5.30;3.33;;;;;;;;;;5120453;28;20092;-68
2023/04/19 06:26:58;;;;;;;9.35;3.35;;;;;;;;;;5111598;28;20048;-68
2023/04/19 06:29:26;;;;;;;6.65;3.30;;;;;;;;;;5109654;28;20055;-68
2023/04/19 06:31:53;;;;;;;6.13;3.13;;;;;;;;;;5113657;27;20043;-68
2023/04/19 06:34:22;;;;;;;5.05;2.92;;;;;;;;;;5117787;27;20048;-69
2023/04/19 06:36:49;;;;;;;9.45;3.30;;;;;;;;;;5117770;27;20058;-68
2023/04/19 06:39:17;;;;;;;7.55;3.50;;;;;;;;;;5105106;27;20051;-68
2023/04/19 06:41:44;;;;;;;8.40;3.13;;;;;;;;;;5119702;27;20487;-68
2023/04/19 06:44:12;;;;;;;8.18;3.55;;;;;;;;;;5116960;27;20050;-68
2023/04/19 06:46:39;;;;;;;7.88;3.42;;;;;;;;;;5103841;27;20039;-68
2023/04/19 06:49:07;;;;;;;12.30;3.20;;;;;;;;;;5109790;27;20139;-68
2023/04/19 06:51:35;;;;;;;7.57;3.10;;;;;;;;;;5117769;27;20050;-68
2023/04/19 06:54:02;;;;;;;3.53;2.80;;;;;;;;;;5115151;27;20044;-68
2023/04/19 06:56:44;;;;;;;6.25;2.75;;;;;;;;;;5110381;27;20122;-68
2023/04/19 06:59:11;;;;;;;4.75;2.60;;;;;;;;;;5111769;27;20051;-68
2023/04/19 07:01:39;;;;;;;6.75;2.60;;;;;;;;;;5109328;27;20055;-68
2023/04/19 07:04:07;;;;;;;5.47;2.47;;;;;;;;;;5114269;27;20444;-68
2023/04/19 07:06:36;;;;;;;5.93;2.83;;;;;;;;;;5114038;27;20132;-68
2023/04/19 07:09:04;;;;;;;3.63;2.53;;;;;;;;;;5115965;27;20055;-68
2023/04/19 07:11:31;;;;;;;4.25;2.50;;;;;;;;;;5110224;27;20052;-68
2023/04/19 07:13:59;;;;;;;6.55;2.97;;;;;;;;;;5111986;27;20055;-68
2023/04/19 07:16:26;;;;;;;4.68;2.30;;;;;;;;;;5110841;27;20436;-70
2023/04/19 07:18:54;;;;;;;5.50;2.67;;;;;;;;;;5111701;27;20047;-68
2023/04/19 07:21:21;;;;;;;4.88;2.20;;;;;;;;;;5111891;27;20047;-70
2023/04/19 07:23:50;;;;;;;4.10;2.55;;;;;;;;;;5113004;27;20410;-68
2023/04/19 07:26:17;;;;;;;6.65;2.67;;;;;;;;;;5117048;27;20044;-68
2023/04/19 07:28:45;;;;;;;4.57;2.20;;;;;;;;;;5116493;27;20043;-68
2023/04/19 07:31:16;;;;;;;3.70;2.25;;;;;;;;;;5110586;27;20093;-68
2023/04/19 07:33:43;;;;;;;4.78;2.50;;;;;;;;;;5112351;27;20469;-68
2023/04/19 07:36:11;;;;;;;3.95;2.00;;;;;;;;;;5111037;27;20052;-68
2023/04/19 07:38:38;;;;;;;2.97;2.10;;;;;;;;;;5119355;27;20043;-68
2023/04/19 07:41:07;;;;;;;3.00;2.03;;;;;;;;;;5115635;27;20050;-68
2023/04/19 07:43:34;;;;;;;5.07;1.98;;;;;;;;;;5105336;27;20066;-68
2023/04/19 07:46:02;;;;;;;7.53;1.80;;;;;;;;;;5114470;27;20047;-68
2023/04/19 07:48:29;;;;;;;7.72;2.10;;;;;;;;;;5117934;27;20051;-69
2023/04/19 07:50:56;;;;;;;3.90;2.08;;;;;;;;;;5114159;27;20044;-68
2023/04/19 07:53:24;;;;;;;4.93;1.75;;;;;;;;;;5118142;27;20047;-68
2023/04/19 07:55:51;;;;;;;6.95;1.67;;;;;;;;;;5105357;27;20043;-68
2023/04/19 07:58:20;;;;;;;2.90;1.60;;;;;;;;;;5114713;27;20047;-68
2023/04/19 08:00:48;;;;;;;3.30;1.70;;;;;;;;;;5119045;27;20122;-69
2023/04/19 08:03:16;;;;;;;4.85;1.80;;;;;;;;;;5118936;27;20054;-69
2023/04/19 08:05:43;;;;;;;6.03;1.50;;;;;;;;;;5117026;27;20057;-69
2023/04/19 08:08:11;;;;;;;3.00;1.67;;;;;;;;;;5113293;27;20063;-70
2023/04/19 08:10:38;;;;;;;2.85;1.52;;;;;;;;;;5116877;27;20439;-69
2023/04/19 08:13:05;;;;;;;2.72;1.45;;;;;;;;;;5109466;27;20051;-68
2023/04/19 08:15:34;;;;;;;4.53;1.77;;;;;;;;;;5117805;27;20048;-68
2023/04/19 08:18:03;;;;;;;5.63;1.25;;;;;;;;;;5117979;27;20453;-68
2023/04/19 08:20:30;;;;;;;3.30;1.40;;;;;;;;;;5123635;27;20050;-68
2023/04/19 08:22:58;;;;;;;2.92;1.23;;;;;;;;;;5112295;27;20130;-69
2023/04/19 08:25:27;;;;;;;3.30;1.50;;;;;;;;;;5113848;27;20771;-69
2023/04/19 08:27:56;;;;;;;2.88;1.40;;;;;;;;;;5111517;27;20147;-68
2023/04/19 08:30:23;;;;;;;3.70;1.15;;;;;;;;;;5115270;27;20047;-69
2023/04/19 08:32:52;;;;;;;5.72;1.45;;;;;;;;;;5112577;27;20044;-68
2023/04/19 08:35:21;;;;;;;3.63;1.30;;;;;;;;;;5111898;27;20056;-69
2023/04/19 08:37:49;;;;;;;2.17;1.48;;;;;;;;;;5106307;27;20063;-69
2023/04/19 08:40:16;;;;;;;4.18;1.50;;;;;;;;;;5112760;27;20040;-69
2023/04/19 08:42:44;;;;;;;4.63;1.35;;;;;;;;;;5108963;27;20054;-68
2023/04/19 08:45:12;;;;;;;3.13;1.40;;;;;;;;;;5107801;27;20051;-69
2023/04/19 08:47:40;;;;;;;3.75;1.70;;;;;;;;;;5118870;27;20055;-69
2023/04/19 08:50:09;;;;;;;5.15;1.45;;;;;;;;;;5113197;27;20051;-68
2023/04/19 08:52:37;;;;;;;2.45;1.40;;;;;;;;;;5114103;27;20465;-69
2023/04/19 08:55:04;;;;;;;5.65;1.50;;;;;;;;;;5115174;27;20051;-68
2023/04/19 08:57:32;;;;;;;3.25;1.52;;;;;;;;;;5109916;27;20044;-69
2023/04/19 09:00:00;;;;;;;3.38;1.60;;;;;;;;;;5113112;27;20043;-69
2023/04/19 09:02:27;;;;;;;3.53;1.58;;;;;;;;;;5122159;27;20059;-69
2023/04/19 09:04:54;;;;;;;4.13;1.50;;;;;;;;;;5127667;27;20073;-68
2023/04/19 09:07:25;;;;;;;4.57;1.40;;;;;;;;;;5128846;27;20059;-69
2023/04/19 09:10:05;;;;;;;3.38;1.30;;;;;;;;;;5126068;27;20490;-69
2023/04/19 09:12:33;;;;;;;2.33;1.15;;;;;;;;;;5128326;27;20126;-68
2023/04/19 09:15:01;;;;;;;3.75;1.27;;;;;;;;;;5125078;27;20716;-69
2023/04/19 09:17:28;;;;;;;1.75;1.15;;;;;;;;;;5128292;27;20074;-69
2023/04/19 09:19:56;;;;;;;4.00;1.20;;;;;;;;;;5127080;27;20047;-69
2023/04/19 09:22:25;;;;;;;4.45;1.50;;;;;;;;;;5128598;27;20048;-69
2023/04/19 09:24:52;;;;;;;2.92;1.23;;;;;;;;;;5128825;28;20075;-69
2023/04/19 09:27:27;;;;;;;5.65;1.30;;;;;;;;;;5128599;27;20668;-69
2023/04/19 09:29:54;;;;;;;5.38;1.50;;;;;;;;;;5127501;27;20055;-68
2023/04/19 09:32:21;;;;;;;3.17;1.42;;;;;;;;;;5127422;27;20050;-69
2023/04/19 09:34:53;;;;;;;3.13;1.10;;;;;;;;;;5127529;27;20047;-69
2023/04/19 09:37:20;;;;;;;4.03;1.70;;;;;;;;;;5128001;27;20047;-69
2023/04/19 09:39:49;;;;;;;3.28;1.58;;;;;;;;;;5128788;27;20489;-69
2023/04/19 09:42:17;;;;;;;3.35;1.48;;;;;;;;;;5130324;27;20051;-69
2023/04/19 09:44:56;;;;;;;2.25;1.30;;;;;;;;;;5126779;27;20503;-69
2023/04/19 09:47:24;;;;;;;4.45;1.70;;;;;;;;;;5125306;27;20044;-69
2023/04/19 09:50:04;;;;;;;5.70;1.42;;;;;;;;;;5127555;27;20083;-69
2023/04/19 09:52:32;;;;;;;3.08;1.40;;;;;;;;;;5126446;27;20134;-70
2023/04/19 09:55:02;;;;;;;6.57;1.65;;;;;;;;;;5125719;27;20070;-70
2023/04/19 09:57:30;;;;;;;2.70;1.48;;;;;;;;;;5127050;28;20172;-70
2023/04/19 09:59:58;;;;;;;6.15;1.73;;;;;;;;;;5108102;28;20054;-70
2023/04/19 10:02:26;;;;;;;2.80;1.33;;;;;;;;;;5106862;28;20057;-70
2023/04/19 10:04:56;;;;;;;3.22;1.50;;;;;;;;;;5127216;27;20248;-70
2023/04/19 10:07:24;;;;;;;5.13;1.67;;;;;;;;;;5129186;27;20126;-70
2023/04/19 10:09:51;;;;;;;5.45;2.05;;;;;;;;;;5130761;27;20047;-70
2023/04/19 10:12:20;;;;;;;5.22;1.90;;;;;;;;;;5131637;27;20049;-70
2023/04/19 10:14:48;;;;;;;6.20;1.98;;;;;;;;;;5113306;27;20054;-70
2023/04/19 10:17:15;;;;;;;4.97;1.63;;;;;;;;;;5128632;27;20051;-70
2023/04/19 10:19:43;;;;;;;3.53;1.77;;;;;;;;;;5128684;27;20035;-70
2023/04/19 10:22:11;;;;;;;8.32;2.13;;;;;;;;;;5112428;27;20051;-70
2023/04/19 10:24:38;;;;;;;4.85;1.80;;;;;;;;;;5113445;27;20051;-70
2023/04/19 10:27:10;;;;;;;4.82;1.83;;;;;;;;;;5130609;27;20058;-70
2023/04/19 10:30:02;;;;;;;3.77;1.70;;;;;;;;;;5130358;27;20546;-70
2023/04/19 10:32:30;;;;;;;4.18;1.60;;;;;;;;;;5128418;27;20843;-70
2023/04/19 10:35:03;;;;;;;4.78;2.10;;;;;;;;;;5131930;27;20073;-70
2023/04/19 10:37:32;;;;;;;6.22;1.88;;;;;;;;;;5129336;27;20050;-70
2023/04/19 10:39:59;;;;;;;11.45;2.05;;;;;;;;;;5126647;27;20057;-70
2023/04/19 10:42:50;;;;;;;6.15;1.90;;;;;;;;;;5128669;27;20055;-70
2023/04/19 10:45:34;;;;;;;6.53;1.90;;;;;;;;;;5111080;27;20051;-70
2023/04/19 10:48:03;;;;;;;6.07;1.80;;;;;;;;;;5121409;27;20567;-70
2023/04/19 10:50:31;;;;;;;4.07;1.80;;;;;;;;;;5130588;27;20046;-70
2023/04/19 10:52:58;;;;;;;5.28;1.45;;;;;;;;;;5130226;27;20490;-70
2023/04/19 10:55:26;;;;;;;4.50;1.50;;;;;;;;;;5131886;27;20159;-70
2023/04/19 10:58:03;;;;;;;3.45;1.50;;;;;;;;;;5126731;27;20123;-70
2023/04/19 11:00:32;;;;;;;6.10;1.40;;;;;;;;;;5113324;27;20509;-70
2023/04/19 11:03:01;;;;;;;5.82;1.40;;;;;;;;;;5130094;27;20053;-70
2023/04/19 11:05:28;;;;;;;4.60;1.25;;;;;;;;;;5129758;27;20047;-70
2023/04/19 11:07:56;;;;;;;4.18;1.60;;;;;;;;;;5131477;27;20039;-70
2023/04/19 11:10:34;;;;;;;5.63;1.35;;;;;;;;;;5110793;27;20046;-70
2023/04/19 11:13:02;;;;;;;2.40;1.17;;;;;;;;;;5128973;27;20057;-70
2023/04/19 11:15:29;;;;;;;3.10;1.15;;;;;;;;;;5111879;27;20043;-70
2023/04/19 11:17:57;;;;;;;3.65;1.33;;;;;;;;;;5107450;27;20043;-70
2023/04/19 11:20:26;;;;;;;3.13;1.27;;;;;;;;;;5127172;27;20066;-70
2023/04/19 11:22:55;;;;;;;3.40;1.08;;;;;;;;;;5125298;27;20402;-70
2023/04/19 11:25:23;;;;;;;6.90;1.33;;;;;;;;;;5130279;27;20490;-71
2023/04/19 11:27:51;;;;;;;2.45;1.30;;;;;;;;;;5130791;27;20134;-70
2023/04/19 11:30:21;;;;;;;7.05;1.10;;;;;;;;;;5128113;27;20051;-70
2023/04/19 11:32:48;;;;;;;5.25;1.00;;;;;;;;;;5128395;27;20043;-70
2023/04/19 11:35:16;;;;;;;5.03;1.48;;;;;;;;;;5128800;27;20054;-70
2023/04/19 11:37:45;;;;;;;3.53;1.30;;;;;;;;;;5129717;27;20039;-71
2023/04/19 11:40:15;;;;;;;2.80;1.20;;;;;;;;;;5126953;27;20047;-71
2023/04/19 11:42:42;;;;;;;4.55;1.27;;;;;;;;;;5131328;27;20435;-71
2023/04/19 11:45:10;;;;;;;2.10;1.00;;;;;;;;;;5127646;27;20393;-71
2023/04/19 11:47:47;;;;;;;6.60;1.13;;;;;;;;;;5123747;27;20043;-71
2023/04/19 11:50:30;;;;;;;4.47;1.17;;;;;;;;;;5109402;27;20057;-70
2023/04/19 11:52:58;;;;;;;3.45;1.40;;;;;;;;;;5125264;27;20066;-70
2023/04/19 11:55:26;;;;;;;3.28;1.10;;;;;;;;;;5128656;27;20054;-70
2023/04/19 11:57:53;;;;;;;6.45;1.17;;;;;;;;;;5128148;27;20135;-70
2023/04/19 12:00:28;;;;;;;3.90;1.20;;;;;;;;;;5128634;27;20047;-70
2023/04/19 12:02:55;;;;;;;5.70;1.30;;;;;;;;;;5118430;27;20424;-70
2023/04/19 12:05:24;;;;;;;4.53;1.20;;;;;;;;;;5127798;27;20051;-69
2023/04/19 12:08:02;;;;;;;4.00;1.17;;;;;;;;;;5112075;27;20562;-70
2023/04/19 12:10:30;;;;;;;7.43;1.85;;;;;;;;;;5128043;27;20091;-70
2023/04/19 12:12:57;;;;;;;2.95;1.60;;;;;;;;;;5127616;27;20044;-70
2023/04/19 12:15:24;;;;;;;4.07;2.00;;;;;;;;;;5126196;27;20105;-70
2023/04/19 12:17:59;;;;;;;2.67;1.70;;;;;;;;;;5108927;27;20051;-70
2023/04/19 12:20:30;;;;;;;10.57;1.98;;;;;;;;;;5110681;27;20054;-70
2023/04/19 12:22:57;;;;;;;5.90;2.05;;;;;;;;;;5123935;27;20380;-70
2023/04/19 12:25:30;;;;;;;3.47;1.80;;;;;;;;;;5126397;27;20035;-70
2023/04/19 12:27:57;;;;;;;3.97;2.05;;;;;;;;;;5127311;27;20043;-70
2023/04/19 12:30:25;;;;;;;7.22;2.03;;;;;;;;;;5128042;27;20051;-70
2023/04/19 12:32:54;;;;;;;3.08;1.90;;;;;;;;;;5126043;27;20043;-70
2023/04/19 12:35:22;;;;;;;4.28;1.85;;;;;;;;;;5123564;27;20141;-70
2023/04/19 12:37:49;;;;;;;5.93;2.28;;;;;;;;;;5124819;27;20082;-70
2023/04/19 12:40:16;;;;;;;5.65;2.30;;;;;;;;;;5127354;27;20043;-70
2023/04/19 12:42:45;;;;;;;5.13;2.67;;;;;;;;;;5125969;27;20050;-70
2023/04/19 12:45:13;;;;;;;7.32;2.40;;;;;;;;;;5125283;27;20068;-70
2023/04/19 12:47:40;;;;;;;9.68;2.38;;;;;;;;;;5127830;27;20049;-70
2023/04/19 12:50:08;;;;;;;9.70;2.40;;;;;;;;;;5128865;27;20557;-71
2023/04/19 12:52:36;;;;;;;5.75;2.60;;;;;;;;;;5124561;27;20047;-70
2023/04/19 12:55:03;;;;;;;9.90;2.60;;;;;;;;;;5127459;27;20047;-70
2023/04/19 12:57:30;;;;;;;5.43;2.88;;;;;;;;;;5124455;27;20051;-70
2023/04/19 12:59:59;;;;;;;6.20;2.92;;;;;;;;;;5106811;27;20048;-70
2023/04/19 13:02:26;;;;;;;6.57;2.80;;;;;;;;;;5116870;27;20055;-70
2023/04/19 13:04:54;;;;;;;6.03;2.40;;;;;;;;;;5107102;28;20079;-70
2023/04/19 13:07:21;;;;;;;4.50;2.60;;;;;;;;;;5084700;28;20082;-70
2023/04/19 13:09:48;;;;;;;7.15;2.80;;;;;;;;;;5107473;28;20051;-70
2023/04/19 13:12:15;;;;;;;9.50;2.90;;;;;;;;;;5105183;28;20096;-70
2023/04/19 13:14:45;;;;;;;9.00;2.58;;;;;;;;;;5108216;28;20051;-70
2023/04/19 13:17:13;;;;;;;8.23;2.90;;;;;;;;;;5107682;28;20048;-70
2023/04/19 13:19:40;;;;;;;4.05;2.60;;;;;;;;;;5105199;28;20051;-71
2023/04/19 13:22:08;;;;;;;6.32;2.78;;;;;;;;;;5107823;28;20370;-70
2023/04/19 13:24:35;;;;;;;8.88;2.72;;;;;;;;;;5103430;28;20044;-70
2023/04/19 13:27:02;;;;;;;38.55;4.20;;;;;;;;;;5087944;28;20044;-71
2023/04/19 13:29:30;;;;;;;7.20;3.03;;;;;;;;;;5105878;28;20092;-70
2023/04/19 13:31:57;;;;;;;8.82;2.85;;;;;;;;;;5104996;28;20546;-71
2023/04/19 13:34:26;;;;;;;4.80;2.70;;;;;;;;;;5107638;28;20411;-70
2023/04/19 13:36:53;;;;;;;4.93;2.72;;;;;;;;;;5106386;28;20051;-70
2023/04/19 13:39:20;;;;;;;4.75;2.83;;;;;;;;;;5107719;28;20054;-70
2023/04/19 13:41:47;;;;;;;4.53;2.50;;;;;;;;;;5107563;28;20054;-70
2023/04/19 13:44:15;;;;;;;5.60;3.05;;;;;;;;;;5092512;28;20048;-71
2023/04/19 13:46:42;;;;;;;5.22;2.70;;;;;;;;;;5102674;28;20051;-71
2023/04/19 13:49:09;;;;;;;7.68;2.60;;;;;;;;;;5105441;27;20130;-70
2023/04/19 13:51:38;;;;;;;4.25;2.60;;;;;;;;;;5112930;28;20059;-70
2023/04/19 13:54:05;;;;;;;7.13;2.58;;;;;;;;;;5108149;28;20380;-71
2023/04/19 13:56:32;;;;;;;5.78;2.67;;;;;;;;;;5113781;27;20039;-70
2023/04/19 13:59:00;;;;;;;4.60;2.97;;;;;;;;;;5088981;28;20732;-70
2023/04/19 14:01:27;;;;;;;4.85;2.90;;;;;;;;;;5107923;28;20087;-71
2023/04/19 14:03:55;;;;;;;5.07;2.97;;;;;;;;;;5126512;27;20100;-71
2023/04/19 14:06:22;;;;;;;6.47;3.30;;;;;;;;;;5126645;27;20086;-70
2023/04/19 14:08:51;;;;;;;5.60;2.70;;;;;;;;;;5127833;27;20116;-70
2023/04/19 14:11:18;;;;;;;6.95;2.97;;;;;;;;;;5129990;27;20505;-70
2023/04/19 14:13:47;;;;;;;7.47;3.03;;;;;;;;;;5130035;27;20043;-70
2023/04/19 14:16:14;;;;;;;5.30;3.00;;;;;;;;;;5128530;27;20051;-71
2023/04/19 14:18:41;;;;;;;6.35;2.95;;;;;;;;;;5129812;27;20497;-70
2023/04/19 14:21:08;;;;;;;5.45;3.22;;;;;;;;;;5128969;27;20055;-70
2023/04/19 14:23:36;;;;;;;6.05;3.30;;;;;;;;;;5133252;27;20058;-70
2023/04/19 14:26:04;;;;;;;8.82;3.35;;;;;;;;;;5130627;27;20043;-69
2023/04/19 14:28:31;;;;;;;7.38;3.00;;;;;;;;;;5132222;27;20051;-70
2023/04/19 14:30:59;;;;;;;6.00;3.53;;;;;;;;;;5112595;27;20043;-69
2023/04/19 14:33:26;;;;;;;5.30;3.10;;;;;;;;;;5130521;27;20074;-70
2023/04/19 14:35:53;;;;;;;6.40;3.38;;;;;;;;;;5112841;27;20458;-70
2023/04/19 14:38:21;;;;;;;7.90;3.05;;;;;;;;;;5131661;27;20132;-69
2023/04/19 14:40:48;;;;;;;5.70;3.00;;;;;;;;;;5131231;27;20043;-70
2023/04/19 14:43:17;;;;;;;4.60;3.03;;;;;;;;;;5105876;27;20131;-69